Time;durP1;ratioP1;P1;durP2;ratioP2;P2;SDS_P1;SDS_P2;PMS_P1;PMS_P2;Temp;Humidity;BMP_temperature;BMP_pressure;BME280_temperature;BME280_humidity;BME280_pressure;Samples;Min_cycle;Max_cycle;Signal;HPM_P1;HPM_P2
2021/12/24 00:00:34;;;;;;;82.68;44.53;;;;;;;6.59;100.00;100454.91;5088566;28;20028;-83
2021/12/24 00:02:59;;;;;;;79.85;43.05;;;;;;;6.57;100.00;100450.72;5071204;28;20453;-82
2021/12/24 00:05:25;;;;;;;76.38;41.17;;;;;;;6.56;100.00;100454.25;5087790;28;20024;-81
2021/12/24 00:07:51;;;;;;;74.22;41.28;;;;;;;6.57;100.00;100453.31;5089502;28;20031;-82
2021/12/24 00:10:16;;;;;;;69.57;40.50;;;;;;;6.57;100.00;100445.47;5108812;28;20107;-82
2021/12/24 00:12:47;;;;;;;66.72;39.28;;;;;;;6.54;100.00;100446.50;5109850;28;20027;-82
2021/12/24 00:18:07;;;;;;;66.57;38.63;;;;;;;6.56;100.00;100438.56;5109167;28;20453;-82
2021/12/24 00:35:05;;;;;;;62.08;36.92;;;;;;;6.62;100.00;100448.63;5109454;28;20062;-81
2021/12/24 00:37:09;;;;;;;59.97;37.88;;;;;;;6.76;100.00;100439.91;5054380;28;20128;-82
2021/12/24 00:39:40;;;;;;;67.03;38.63;;;;;;;6.80;100.00;100434.38;5091321;28;20024;-82
2021/12/24 00:42:06;;;;;;;63.47;38.70;;;;;;;6.77;100.00;100426.72;5091091;28;20472;-81
2021/12/24 00:44:31;;;;;;;58.88;37.58;;;;;;;6.81;100.00;100419.56;5109203;28;20039;-84
2021/12/24 00:46:57;;;;;;;57.78;37.25;;;;;;;6.82;100.00;100416.84;5091045;28;20050;-84
2021/12/24 00:49:22;;;;;;;56.85;37.05;;;;;;;6.79;100.00;100421.41;5086402;28;20061;-81
2021/12/24 00:56:57;;;;;;;54.00;35.90;;;;;;;6.86;100.00;100417.47;5109896;28;20034;-82
2021/12/24 00:59:23;;;;;;;52.83;36.72;;;;;;;6.83;100.00;100415.91;5090829;28;20457;-83
2021/12/24 01:01:49;;;;;;;59.72;38.15;;;;;;;6.88;100.00;100420.81;5108910;28;20384;-83
2021/12/24 01:04:14;;;;;;;57.53;37.10;;;;;;;6.88;100.00;100415.59;5091241;28;20106;-82
2021/12/24 01:06:39;;;;;;;64.18;40.20;;;;;;;6.88;100.00;100407.75;5089857;28;20130;-82
2021/12/24 01:09:05;;;;;;;62.35;39.72;;;;;;;6.92;100.00;100409.22;5108895;28;20066;-82
2021/12/24 01:11:31;;;;;;;63.65;40.33;;;;;;;6.96;100.00;100415.91;5090564;28;20031;-82
2021/12/24 01:13:59;;;;;;;64.55;40.95;;;;;;;6.97;100.00;100406.28;5090677;28;20023;-83
2021/12/24 01:16:32;;;;;;;66.78;42.35;;;;;;;6.99;100.00;100410.47;5089731;28;20034;-83
2021/12/24 01:19:10;;;;;;;71.90;43.80;;;;;;;7.05;100.00;100411.84;5090456;28;20034;-83
2021/12/24 01:24:30;;;;;;;79.97;47.60;;;;;;;7.04;100.00;100403.16;5089141;28;20086;-83
2021/12/24 01:27:07;;;;;;;77.85;46.50;;;;;;;7.13;100.00;100412.19;5098607;28;20023;-83
2021/12/24 01:29:45;;;;;;;76.85;47.10;;;;;;;7.08;100.00;100403.81;5111453;28;20024;-83
2021/12/24 01:40:38;;;;;;;98.00;55.05;;;;;;;7.21;100.00;100407.28;5110178;28;20430;-87
2021/12/24 01:43:04;;;;;;;101.43;58.10;;;;;;;7.27;100.00;100399.03;5094028;28;20410;-86
2021/12/24 01:45:33;;;;;;;107.20;60.15;;;;;;;7.33;100.00;100416.94;5093114;28;20052;-87
2021/12/24 01:48:01;;;;;;;112.18;61.38;;;;;;;7.34;100.00;100407.28;5111929;28;20376;-86
2021/12/24 01:50:29;;;;;;;108.82;61.22;;;;;;;7.38;100.00;100414.84;5111424;28;20023;-85
2021/12/24 01:52:55;;;;;;;106.53;61.30;;;;;;;7.34;100.00;100409.91;5112414;28;20027;-86
2021/12/24 01:55:23;;;;;;;100.88;59.60;;;;;;;7.32;100.00;100403.94;5105558;28;20023;-86
2021/12/24 01:57:49;;;;;;;105.15;61.17;;;;;;;7.38;100.00;100412.22;5112303;28;20031;-86
2021/12/24 02:00:18;;;;;;;107.65;61.20;;;;;;;7.40;100.00;100410.34;5112407;28;20026;-87
2021/12/24 02:02:44;;;;;;;102.55;59.85;;;;;;;7.39;100.00;100407.81;5093876;28;20024;-86
2021/12/24 02:05:09;;;;;;;100.63;58.10;;;;;;;7.41;100.00;100398.09;5112150;28;20064;-86
2021/12/24 02:07:36;;;;;;;100.78;60.17;;;;;;;7.48;100.00;100415.88;5112039;28;20026;-86
2021/12/24 02:10:04;;;;;;;102.50;57.60;;;;;;;7.52;100.00;100419.97;5112017;28;20028;-87
2021/12/24 02:12:32;;;;;;;101.35;59.70;;;;;;;7.53;100.00;100411.16;5109247;28;20036;-87
2021/12/24 02:14:59;;;;;;;103.57;58.22;;;;;;;7.50;100.00;100400.91;5094358;28;20103;-86
2021/12/24 02:17:58;;;;;;;101.63;58.70;;;;;;;7.53;100.00;100405.94;5091515;28;20048;-86
2021/12/24 02:28:43;;;;;;;100.75;56.83;;;;;;;7.56;100.00;100404.88;5110546;28;20046;-86
2021/12/24 02:31:14;;;;;;;102.75;58.03;;;;;;;7.63;100.00;100411.41;5086327;28;20019;-87
2021/12/24 02:33:41;;;;;;;104.25;59.95;;;;;;;7.64;100.00;100407.84;5084031;28;20547;-87
2021/12/24 02:36:07;;;;;;;103.55;60.22;;;;;;;7.64;100.00;100404.38;5077746;28;20026;-87
2021/12/24 02:38:33;;;;;;;106.35;60.90;;;;;;;7.64;100.00;100404.38;5091652;28;20072;-86
2021/12/24 02:41:01;;;;;;;119.80;64.68;;;;;;;7.68;100.00;100408.47;5092610;28;20032;-87
2021/12/24 02:43:27;;;;;;;108.00;62.35;;;;;;;7.68;100.00;100395.38;5110692;28;20019;-86
2021/12/24 02:45:57;;;;;;;112.05;63.53;;;;;;;7.68;100.00;100390.97;5111576;28;20049;-86
2021/12/24 02:56:18;;;;;;;122.93;65.22;;;;;;;7.73;100.00;100390.66;5111331;28;20034;-86
2021/12/24 02:58:46;;;;;;;121.93;68.13;;;;;;;7.74;100.00;100397.56;5092344;28;20031;-86
2021/12/24 03:01:19;;;;;;;131.23;67.15;;;;;;;7.75;100.00;100399.22;5088101;28;20340;-86
2021/12/24 03:03:48;;;;;;;126.03;67.85;;;;;;;7.72;100.00;100383.72;5109717;28;20030;-86
2021/12/24 03:06:18;;;;;;;129.88;69.72;;;;;;;7.69;100.00;100378.72;5103520;28;20031;-85
2021/12/24 03:08:44;;;;;;;134.88;68.72;;;;;;;7.69;100.00;100382.16;5109643;28;20039;-86
2021/12/24 03:11:09;;;;;;;132.20;70.28;;;;;;;7.76;100.00;100382.56;5111642;28;20031;-86
2021/12/24 03:13:36;;;;;;;134.88;68.68;;;;;;;7.78;100.00;100396.41;5119948;27;20097;-86
2021/12/24 03:16:03;;;;;;;122.72;68.90;;;;;;;7.80;100.00;100386.66;5132035;27;20034;-85
2021/12/24 03:18:31;;;;;;;127.57;67.13;;;;;;;7.80;100.00;100387.50;5131367;27;20023;-86
2021/12/24 03:23:41;;;;;;;124.65;66.00;;;;;;;7.79;100.00;100395.44;5100614;28;20481;-86
2021/12/24 03:26:14;;;;;;;129.13;66.57;;;;;;;7.78;100.00;100385.91;5093300;28;20379;-86
2021/12/24 03:28:40;;;;;;;124.90;66.50;;;;;;;7.82;100.00;100395.22;5110709;28;20031;-86
2021/12/24 03:31:06;;;;;;;127.18;66.78;;;;;;;7.83;100.00;100404.75;5091751;28;20085;-86
2021/12/24 03:33:34;;;;;;;125.97;67.82;;;;;;;7.85;100.00;100405.50;5109860;28;20034;-86
2021/12/24 03:36:06;;;;;;;123.47;66.65;;;;;;;7.79;100.00;100401.53;5110431;28;20028;-86
2021/12/24 03:38:33;;;;;;;126.38;66.22;;;;;;;7.79;100.00;100395.44;5107064;28;20039;-87
2021/12/24 03:40:59;;;;;;;122.97;66.20;;;;;;;7.83;100.00;100402.16;5091123;28;20042;-86
2021/12/24 03:43:24;;;;;;;117.68;62.85;;;;;;;7.85;100.00;100405.50;5109497;28;20096;-86
2021/12/24 03:48:28;;;;;;;130.50;64.25;;;;;;;7.85;100.00;100418.59;5109574;28;20028;-86
2021/12/24 03:56:05;;;;;;;116.28;62.17;;;;;;;7.83;100.00;100412.63;5110719;28;20042;-86
2021/12/24 03:58:31;;;;;;;115.22;59.72;;;;;;;7.86;100.00;100409.78;5078434;28;20028;-86
2021/12/24 04:00:56;;;;;;;115.20;58.78;;;;;;;7.82;100.00;100405.72;5088246;28;20593;-86
2021/12/24 04:03:22;;;;;;;106.18;57.40;;;;;;;7.86;100.00;100415.03;5054908;28;20502;-86
2021/12/24 04:05:48;;;;;;;105.70;56.17;;;;;;;7.86;100.00;100407.16;5071982;28;20463;-86
2021/12/24 04:08:15;;;;;;;103.05;53.65;;;;;;;7.89;100.00;100406.97;5109422;28;20089;-86
2021/12/24 04:10:40;;;;;;;94.63;51.50;;;;;;;7.89;100.00;100404.34;5091489;28;20483;-86
2021/12/24 04:13:13;;;;;;;93.93;50.67;;;;;;;7.89;100.00;100409.56;5073848;28;20164;-86
2021/12/24 04:15:39;;;;;;;93.78;48.42;;;;;;;7.91;100.00;100399.81;5078164;28;20481;-86
2021/12/24 04:18:33;;;;;;;94.10;47.33;;;;;;;7.90;100.00;100392.91;5071140;28;20142;-86
2021/12/24 04:26:31;;;;;;;76.65;39.67;;;;;;;7.89;100.00;100401.72;5049519;28;20098;-86
2021/12/24 04:28:57;;;;;;;68.47;37.60;;;;;;;7.91;100.00;100397.22;5048563;28;20028;-86
2021/12/24 04:31:30;;;;;;;62.90;35.90;;;;;;;7.87;100.00;100398.38;5056021;28;20008;-86
2021/12/24 04:34:00;;;;;;;61.28;31.98;;;;;;;7.91;100.00;100405.06;5069172;28;20028;-86
2021/12/24 04:52:42;;;;;;;57.08;28.45;;;;;;;7.90;100.00;100397.31;5069504;28;20048;-86
2021/12/24 05:03:28;;;;;;;51.88;27.70;;;;;;;7.90;100.00;100394.69;5071590;28;20043;-86
2021/12/24 05:06:06;;;;;;;49.15;27.75;;;;;;;7.91;100.00;100397.22;5068994;28;20081;-86
2021/12/24 05:08:40;;;;;;;46.17;25.42;;;;;;;7.86;100.00;100396.69;5071061;28;20036;-86
2021/12/24 05:11:10;;;;;;;41.38;25.85;;;;;;;7.88;100.00;100402.66;5072781;28;20024;-86
2021/12/24 05:13:37;;;;;;;51.03;27.27;;;;;;;7.90;100.00;100408.63;5070901;28;20157;-86
2021/12/24 05:16:16;;;;;;;48.03;26.15;;;;;;;7.87;100.00;100398.38;5071880;28;20107;-86
2021/12/24 05:21:34;;;;;;;48.53;24.55;;;;;;;7.88;100.00;100400.03;5075256;28;20174;-86
2021/12/24 05:24:01;;;;;;;45.65;24.52;;;;;;;7.92;100.00;100411.13;5111110;28;20402;-85
2021/12/24 05:26:28;;;;;;;44.83;24.48;;;;;;;7.86;100.00;100408.00;5090015;28;20019;-84
2021/12/24 05:28:53;;;;;;;47.30;23.48;;;;;;;7.86;100.00;100412.41;5094087;28;20028;-85
2021/12/24 05:31:20;;;;;;;46.33;23.60;;;;;;;7.85;100.00;100418.59;5112626;28;20023;-85
2021/12/24 05:33:45;;;;;;;44.85;23.25;;;;;;;7.84;100.00;100417.75;5112764;28;20460;-86
2021/12/24 05:36:14;;;;;;;47.67;22.48;;;;;;;7.83;100.00;100423.09;5096612;28;20110;-86
2021/12/24 05:38:39;;;;;;;47.28;22.55;;;;;;;7.83;100.00;100417.84;5106142;28;20113;-85
2021/12/24 05:41:05;;;;;;;47.20;21.83;;;;;;;7.84;100.00;100420.38;5109858;28;20024;-85
2021/12/24 05:43:30;;;;;;;42.15;20.77;;;;;;;7.78;100.00;100414.72;5097417;28;20580;-85
2021/12/24 05:45:56;;;;;;;36.88;19.95;;;;;;;7.83;100.00;100428.34;5108921;28;20034;-86
2021/12/24 05:48:22;;;;;;;37.08;19.55;;;;;;;7.83;100.00;100433.56;5092522;28;20024;-85
2021/12/24 05:50:47;;;;;;;37.80;18.95;;;;;;;7.82;100.00;100442.38;5103883;28;20360;-85
2021/12/24 05:53:13;;;;;;;44.22;19.17;;;;;;;7.82;100.00;100431.91;5095004;28;20077;-86
2021/12/24 05:55:38;;;;;;;37.95;18.63;;;;;;;7.78;100.00;100430.44;5093197;28;20070;-86
2021/12/24 05:58:07;;;;;;;39.28;19.42;;;;;;;7.80;100.00;100428.56;5104744;28;20024;-86
2021/12/24 06:00:35;;;;;;;40.67;17.77;;;;;;;7.80;100.00;100439.03;5093526;28;20051;-86
2021/12/24 06:03:01;;;;;;;43.42;17.25;;;;;;;7.73;100.00;100427.31;5112016;28;20023;-86
2021/12/24 06:05:26;;;;;;;39.38;18.00;;;;;;;7.79;100.00;100438.19;5111499;28;20023;-86
2021/12/24 06:07:52;;;;;;;42.95;17.45;;;;;;;7.74;100.00;100428.97;5094609;28;20076;-86
2021/12/24 06:10:17;;;;;;;41.17;18.08;;;;;;;7.73;100.00;100427.31;5093929;28;20071;-86
2021/12/24 06:12:42;;;;;;;38.17;16.73;;;;;;;7.69;100.00;100426.69;5111603;28;20107;-85
2021/12/24 06:15:09;;;;;;;33.28;17.13;;;;;;;7.75;100.00;100433.28;5106088;28;20057;-86
2021/12/24 06:17:37;;;;;;;38.88;17.75;;;;;;;7.74;100.00;100429.81;5091492;28;20111;-85
2021/12/24 06:20:08;;;;;;;36.60;16.67;;;;;;;7.69;100.00;100425.84;5089584;28;20106;-86
2021/12/24 06:22:33;;;;;;;39.95;17.38;;;;;;;7.65;100.00;100421.75;5089282;28;20048;-86
2021/12/24 06:24:59;;;;;;;37.00;17.27;;;;;;;7.68;100.00;100429.41;5090812;28;20024;-86
2021/12/24 06:27:25;;;;;;;39.63;16.85;;;;;;;7.73;100.00;100437.78;5078708;28;20028;-85
2021/12/24 06:29:50;;;;;;;43.05;16.38;;;;;;;7.67;100.00;100428.56;5092449;28;20127;-85
2021/12/24 06:32:16;;;;;;;33.00;15.73;;;;;;;7.73;100.00;100432.53;5087797;28;20028;-86
2021/12/24 06:34:44;;;;;;;39.85;15.63;;;;;;;7.72;100.00;100430.88;5092717;28;20051;-86
2021/12/24 06:37:10;;;;;;;36.20;15.20;;;;;;;7.66;100.00;100428.69;5111629;28;20144;-85
2021/12/24 06:39:36;;;;;;;31.92;15.10;;;;;;;7.69;100.00;100420.59;5110412;28;20480;-85
2021/12/24 06:42:01;;;;;;;31.15;15.40;;;;;;;7.66;100.00;100415.59;5093371;28;20233;-86
2021/12/24 06:44:26;;;;;;;30.02;14.30;;;;;;;7.72;100.00;100430.88;5111611;28;20031;-85
2021/12/24 06:46:52;;;;;;;33.13;14.57;;;;;;;7.72;100.00;100436.94;5110882;28;20468;-85
2021/12/24 06:49:18;;;;;;;35.22;14.85;;;;;;;7.74;100.00;100439.44;5097200;28;20031;-86
2021/12/24 06:51:43;;;;;;;38.13;15.23;;;;;;;7.69;100.00;100433.69;5091278;28;20464;-85
2021/12/24 06:54:10;;;;;;;31.55;14.60;;;;;;;7.73;100.00;100443.03;5093163;28;20024;-86
2021/12/24 06:56:36;;;;;;;33.20;16.17;;;;;;;7.70;100.00;100427.53;5111388;28;20395;-86
2021/12/24 06:59:02;;;;;;;39.22;15.18;;;;;;;7.72;100.00;100436.09;5093233;28;20019;-86
2021/12/24 07:01:28;;;;;;;36.47;15.95;;;;;;;7.74;100.00;100435.06;5110385;28;20024;-84
2021/12/24 07:03:53;;;;;;;39.50;17.25;;;;;;;7.71;100.00;100429.19;5107557;28;20443;-86
2021/12/24 07:06:22;;;;;;;32.17;17.60;;;;;;;7.71;100.00;100439.66;5108268;28;20027;-86
2021/12/24 07:08:50;;;;;;;42.85;19.60;;;;;;;7.75;100.00;100441.13;5092506;28;20423;-86
2021/12/24 07:11:15;;;;;;;36.67;19.08;;;;;;;7.69;100.00;100425.84;5092205;28;20024;-85
2021/12/24 07:13:41;;;;;;;40.65;19.65;;;;;;;7.70;100.00;100417.88;5116660;27;20030;-86
2021/12/24 07:16:07;;;;;;;43.85;19.92;;;;;;;7.73;100.00;100424.69;5093108;28;20031;-85
2021/12/24 07:18:32;;;;;;;41.75;19.90;;;;;;;7.72;100.00;100413.38;5092734;28;20035;-85
2021/12/24 07:20:57;;;;;;;38.03;19.33;;;;;;;7.71;100.00;100424.78;5111183;28;20031;-86
2021/12/24 07:23:23;;;;;;;38.78;20.02;;;;;;;7.73;100.00;100432.53;5104023;28;20152;-85
2021/12/24 07:25:48;;;;;;;42.72;20.40;;;;;;;7.68;100.00;100429.41;5089804;28;20433;-85
2021/12/24 07:28:14;;;;;;;39.22;20.85;;;;;;;7.70;100.00;100427.53;5091459;28;20038;-86
2021/12/24 07:30:39;;;;;;;41.28;21.30;;;;;;;7.66;100.00;100436.53;5110053;28;20036;-86
2021/12/24 07:33:05;;;;;;;41.78;21.15;;;;;;;7.65;100.00;100434.84;5091530;28;20063;-86
2021/12/24 07:35:30;;;;;;;47.63;23.08;;;;;;;7.66;100.00;100431.28;5090567;28;20101;-85
2021/12/24 07:37:56;;;;;;;47.92;23.48;;;;;;;7.66;100.00;100426.91;5091589;28;20019;-85
2021/12/24 07:40:25;;;;;;;47.00;23.40;;;;;;;7.64;100.00;100428.78;5100436;28;20314;-86
2021/12/24 07:42:50;;;;;;;43.17;22.98;;;;;;;7.64;100.00;100439.25;5108945;28;20028;-85
2021/12/24 07:45:18;;;;;;;48.20;24.17;;;;;;;7.62;100.00;100445.53;5110187;28;20026;-86
2021/12/24 07:47:44;;;;;;;46.47;23.17;;;;;;;7.63;100.00;100449.84;5109915;28;20031;-85
2021/12/24 07:53:03;;;;;;;48.47;22.77;;;;;;;7.66;100.00;100462.72;5078200;28;20093;-86
2021/12/24 07:55:29;;;;;;;49.25;22.55;;;;;;;7.65;100.00;100450.56;5109528;28;20035;-86
2021/12/24 07:57:55;;;;;;;41.47;22.60;;;;;;;7.63;100.00;100450.66;5095233;27;20026;-86
2021/12/24 08:00:26;;;;;;;46.85;22.35;;;;;;;7.60;100.00;100436.91;5110016;28;20016;-86
2021/12/24 08:02:52;;;;;;;49.17;22.48;;;;;;;7.59;100.00;100435.25;5100344;27;20034;-86
2021/12/24 08:05:19;;;;;;;49.85;22.67;;;;;;;7.58;100.00;100428.34;5124229;27;20037;-85
2021/12/24 08:07:45;;;;;;;49.70;22.30;;;;;;;7.60;100.00;100431.69;5092107;28;20031;-86
2021/12/24 08:10:10;;;;;;;50.20;21.63;;;;;;;7.52;100.00;100404.25;5110320;28;20028;-86
2021/12/24 08:12:36;;;;;;;40.85;21.42;;;;;;;7.53;100.00;100416.41;5109178;28;20027;-86
2021/12/24 08:15:04;;;;;;;50.40;21.88;;;;;;;7.54;100.00;100428.53;5100411;27;20054;-86
2021/12/24 08:17:30;;;;;;;50.80;21.42;;;;;;;7.51;100.00;100434.00;5104423;28;20019;-85
2021/12/24 08:19:55;;;;;;;43.42;20.98;;;;;;;7.50;100.00;100436.72;5092003;28;20025;-86
2021/12/24 08:22:21;;;;;;;40.47;21.15;;;;;;;7.44;100.00;100431.91;5091588;28;20050;-86
2021/12/24 08:24:46;;;;;;;44.65;20.80;;;;;;;7.44;100.00;100432.75;5091428;28;20369;-86
2021/12/24 08:27:12;;;;;;;45.95;20.85;;;;;;;7.45;100.00;100444.88;5109834;28;20085;-86
2021/12/24 08:29:37;;;;;;;44.58;20.02;;;;;;;7.42;100.00;100439.03;5110079;28;20035;-86
2021/12/24 08:32:42;;;;;;;46.90;20.92;;;;;;;7.45;100.00;100444.88;5090064;28;20463;-86
2021/12/24 08:35:14;;;;;;;41.05;20.00;;;;;;;7.35;100.00;100427.28;4993535;28;20129;-86
2021/12/24 08:37:40;;;;;;;45.15;20.60;;;;;;;7.45;100.00;100434.41;5113658;28;20024;-86
2021/12/24 08:40:06;;;;;;;38.13;19.52;;;;;;;7.40;100.00;100419.97;5113446;28;20569;-86
2021/12/24 08:42:32;;;;;;;43.17;19.55;;;;;;;7.48;100.00;100434.19;5112727;28;20066;-86
2021/12/24 08:44:58;;;;;;;42.35;19.40;;;;;;;7.45;100.00;100423.94;5094953;28;20027;-86
2021/12/24 08:47:24;;;;;;;41.63;19.85;;;;;;;7.50;100.00;100423.63;5093568;27;20037;-86
2021/12/24 08:49:49;;;;;;;40.67;20.35;;;;;;;7.47;100.00;100422.06;5098189;28;20034;-85
2021/12/24 08:52:14;;;;;;;45.08;21.13;;;;;;;7.47;100.00;100422.06;5120126;27;20019;-86
2021/12/24 08:54:42;;;;;;;40.97;21.23;;;;;;;7.49;100.00;100430.63;5133429;27;20529;-86
2021/12/24 08:57:07;;;;;;;43.45;21.65;;;;;;;7.49;100.00;100428.03;5095608;28;20032;-86
2021/12/24 08:59:32;;;;;;;51.22;22.83;;;;;;;7.54;100.00;100431.16;5112259;28;20023;-86
2021/12/24 09:01:58;;;;;;;50.25;23.40;;;;;;;7.57;100.00;100427.50;5112595;28;20015;-84
2021/12/24 09:04:24;;;;;;;48.92;23.00;;;;;;;7.50;100.00;100416.63;5092216;28;20072;-84
2021/12/24 09:06:50;;;;;;;48.78;25.13;;;;;;;7.54;100.00;100420.69;5092648;28;20054;-84
2021/12/24 09:09:15;;;;;;;55.08;26.23;;;;;;;7.58;100.00;100420.47;5093743;28;20028;-84
2021/12/24 09:11:42;;;;;;;56.22;24.75;;;;;;;7.61;100.00;100428.16;5097135;27;20028;-84
2021/12/24 09:14:08;;;;;;;58.45;27.55;;;;;;;7.61;100.00;100429.00;5130837;27;20023;-84
2021/12/24 09:16:37;;;;;;;60.22;26.92;;;;;;;7.62;100.00;100414.97;5114018;27;20102;-84
2021/12/24 09:19:08;;;;;;;56.92;27.58;;;;;;;7.68;100.00;100418.94;5133670;27;20038;-83
2021/12/24 09:21:35;;;;;;;60.72;27.73;;;;;;;7.70;100.00;100422.28;5097050;28;20051;-85
2021/12/24 09:24:07;;;;;;;60.33;26.92;;;;;;;7.66;100.00;100410.34;5094767;28;20028;-86
2021/12/24 09:26:32;;;;;;;59.53;27.10;;;;;;;7.74;100.00;100418.50;5094093;28;20257;-86
2021/12/24 09:29:04;;;;;;;56.60;26.73;;;;;;;7.77;100.00;100423.53;5103565;28;20468;-85
2021/12/24 09:31:29;;;;;;;54.17;26.63;;;;;;;7.73;100.00;100411.59;5093331;28;20039;-86
2021/12/24 09:33:55;;;;;;;54.75;25.80;;;;;;;7.79;100.00;100429.50;5095055;28;20023;-86
2021/12/24 09:36:26;;;;;;;59.30;26.75;;;;;;;7.74;100.00;100416.72;5111783;28;20042;-85
2021/12/24 09:38:54;;;;;;;57.13;25.45;;;;;;;7.76;100.00;100422.69;5112749;28;20023;-86
2021/12/24 09:41:24;;;;;;;53.97;24.90;;;;;;;7.73;100.00;100414.22;5112988;28;20051;-85
2021/12/24 09:43:50;;;;;;;52.65;24.60;;;;;;;7.78;100.00;100426.03;5112734;28;20024;-86
2021/12/24 09:46:16;;;;;;;57.85;26.05;;;;;;;7.75;100.00;100423.63;5104081;28;20024;-86
2021/12/24 09:48:42;;;;;;;50.47;23.52;;;;;;;7.81;100.00;100425.81;5074179;28;20040;-85
2021/12/24 09:51:08;;;;;;;53.33;24.48;;;;;;;7.79;100.00;100414.63;5087984;28;20481;-86
2021/12/24 09:53:36;;;;;;;51.80;25.85;;;;;;;7.80;100.00;100418.06;5111531;28;20143;-86
2021/12/24 09:56:05;;;;;;;52.78;25.70;;;;;;;7.81;100.00;100419.75;5093290;28;20085;-86
2021/12/24 09:58:31;;;;;;;54.88;25.80;;;;;;;7.86;100.00;100420.28;5111461;28;20028;-86
2021/12/24 10:00:57;;;;;;;58.75;27.40;;;;;;;7.88;100.00;100410.53;5112217;28;20015;-86
2021/12/24 10:03:30;;;;;;;60.10;28.73;;;;;;;7.89;100.00;100417.44;5110827;28;20344;-86
2021/12/24 10:05:56;;;;;;;62.22;29.65;;;;;;;7.86;100.00;100417.66;5112236;28;20038;-86
2021/12/24 10:08:24;;;;;;;56.38;28.73;;;;;;;7.88;100.00;100415.75;5111364;28;20027;-86
2021/12/24 10:10:54;;;;;;;61.38;29.60;;;;;;;7.89;100.00;100416.59;5093123;28;20490;-86
2021/12/24 10:13:31;;;;;;;64.72;31.80;;;;;;;7.90;100.00;100411.25;5117919;27;20023;-85
2021/12/24 10:16:06;;;;;;;67.70;32.47;;;;;;;7.93;100.00;100423.28;5127788;27;20024;-85
2021/12/24 10:18:37;;;;;;;63.22;31.92;;;;;;;7.88;100.00;100404.44;5092274;28;20396;-86
2021/12/24 10:21:07;;;;;;;60.93;31.67;;;;;;;7.96;100.00;100423.06;5111885;28;20047;-86
2021/12/24 10:23:48;;;;;;;57.28;30.73;;;;;;;7.92;100.00;100409.34;5089158;28;20286;-86
2021/12/24 10:26:23;;;;;;;59.13;31.42;;;;;;;7.95;100.00;100414.38;5089116;28;20365;-85
2021/12/24 10:29:10;;;;;;;62.67;29.63;;;;;;;7.99;100.00;100422.84;5091591;28;20434;-86
2021/12/24 10:31:43;;;;;;;60.35;31.13;;;;;;;7.95;100.00;100414.38;5088622;28;20575;-86
2021/12/24 10:34:16;;;;;;;63.70;29.88;;;;;;;7.92;100.00;100401.50;5084766;28;20054;-85
2021/12/24 10:36:55;;;;;;;58.80;28.95;;;;;;;8.02;100.00;100401.72;5091358;28;20027;-86
2021/12/24 10:39:23;;;;;;;60.42;28.90;;;;;;;7.97;100.00;100401.19;5089145;28;20050;-85
2021/12/24 10:41:50;;;;;;;54.38;28.13;;;;;;;8.02;100.00;100396.47;5091108;28;20024;-86
2021/12/24 10:44:21;;;;;;;61.42;30.02;;;;;;;8.00;100.00;100399.16;5090777;28;20028;-86
2021/12/24 10:46:58;;;;;;;68.63;31.83;;;;;;;8.07;100.00;100405.69;5089401;28;20354;-86
2021/12/24 10:52:27;;;;;;;72.55;36.08;;;;;;;8.10;100.00;100399.38;5089515;28;20028;-85
2021/12/24 10:54:55;;;;;;;73.05;36.63;;;;;;;8.12;100.00;100392.25;5090355;28;20028;-86
2021/12/24 10:57:24;;;;;;;68.20;37.38;;;;;;;8.08;100.00;100382.94;5089871;28;20059;-85
2021/12/24 10:59:54;;;;;;;79.95;40.95;;;;;;;8.09;100.00;100380.22;5089115;28;20097;-88
2021/12/24 11:02:31;;;;;;;86.78;43.58;;;;;;;8.15;100.00;100387.63;5086655;28;20613;-85
2021/12/24 11:04:57;;;;;;;85.38;44.58;;;;;;;8.14;100.00;100383.34;5090628;28;20028;-86
2021/12/24 11:07:40;;;;;;;96.55;46.05;;;;;;;8.18;100.00;100376.94;5088891;28;20024;-85
2021/12/24 11:10:19;;;;;;;82.75;44.20;;;;;;;8.16;100.00;100378.81;5085297;28;20519;-85
2021/12/24 11:12:57;;;;;;;82.97;45.78;;;;;;;8.19;100.00;100385.63;5089286;28;20387;-86
2021/12/24 11:15:47;;;;;;;86.45;45.15;;;;;;;8.24;100.00;100385.28;5087676;28;20032;-85
2021/12/24 11:18:19;;;;;;;89.35;47.10;;;;;;;8.21;100.00;100388.13;5090182;28;20039;-86
2021/12/24 11:20:51;;;;;;;93.00;49.10;;;;;;;8.20;100.00;100374.19;5088793;28;20024;-85
2021/12/24 11:23:18;;;;;;;84.78;47.58;;;;;;;8.23;100.00;100378.38;5104507;28;20385;-85
2021/12/24 11:25:52;;;;;;;82.57;45.75;;;;;;;8.29;100.00;100388.41;5085845;28;20028;-86
2021/12/24 11:28:18;;;;;;;79.30;46.95;;;;;;;8.27;100.00;100379.81;5107446;28;20030;-86
2021/12/24 11:30:50;;;;;;;87.32;46.92;;;;;;;8.31;100.00;100386.53;5109816;28;20032;-86
2021/12/24 11:33:18;;;;;;;84.95;45.45;;;;;;;8.28;100.00;100389.38;5101609;28;20020;-86
2021/12/24 11:35:45;;;;;;;86.88;47.33;;;;;;;8.31;100.00;100387.34;5086127;28;20558;-86
2021/12/24 11:38:16;;;;;;;84.05;45.88;;;;;;;8.33;100.00;100390.72;5079966;28;20027;-86
2021/12/24 11:40:44;;;;;;;83.53;44.03;;;;;;;8.27;100.00;100379.81;5096929;28;20386;-85
2021/12/24 11:43:10;;;;;;;78.88;44.40;;;;;;;8.31;100.00;100391.75;5078645;28;20059;-86
2021/12/24 11:45:35;;;;;;;81.85;44.92;;;;;;;8.28;100.00;100392.81;5094330;28;20431;-86
2021/12/24 11:48:02;;;;;;;77.55;43.75;;;;;;;8.29;100.00;100389.25;5093588;28;20058;-86
2021/12/24 11:50:29;;;;;;;81.35;43.30;;;;;;;8.27;100.00;100400.78;5083138;28;20019;-86
2021/12/24 11:52:59;;;;;;;87.88;45.55;;;;;;;8.28;100.00;100394.59;5077014;28;20077;-86
2021/12/24 11:55:31;;;;;;;79.50;44.20;;;;;;;8.29;100.00;100393.66;5076718;28;20357;-86
2021/12/24 11:58:00;;;;;;;78.00;42.90;;;;;;;8.29;100.00;100391.03;5095023;28;20019;-86
2021/12/24 12:00:41;;;;;;;75.75;42.78;;;;;;;8.30;100.00;100380.44;5100272;28;20023;-86
2021/12/24 12:03:09;;;;;;;75.90;41.67;;;;;;;8.28;100.00;100389.38;5094065;28;20035;-86
2021/12/24 12:05:39;;;;;;;79.25;43.28;;;;;;;8.27;100.00;100382.44;5096358;28;20028;-85
2021/12/24 12:08:24;;;;;;;72.78;41.97;;;;;;;8.34;100.00;100387.16;5097510;28;20380;-86
2021/12/24 12:11:02;;;;;;;68.57;40.20;;;;;;;8.31;100.00;100382.13;5097725;28;20024;-86
2021/12/24 12:13:53;;;;;;;75.72;41.58;;;;;;;8.32;100.00;100388.19;5102210;28;20024;-85
2021/12/24 12:16:23;;;;;;;79.72;41.60;;;;;;;8.32;100.00;100383.78;5096084;28;20578;-86
2021/12/24 12:19:08;;;;;;;75.57;39.58;;;;;;;8.33;100.00;100382.00;5098313;28;20118;-86
2021/12/24 12:21:41;;;;;;;72.82;39.35;;;;;;;8.30;100.00;100361.25;5102245;28;20027;-86
2021/12/24 12:26:42;;;;;;;64.97;37.25;;;;;;;8.35;100.00;100385.38;5095453;28;20419;-86
2021/12/24 12:29:26;;;;;;;72.93;38.20;;;;;;;8.37;100.00;100373.00;5080350;28;20035;-85
2021/12/24 12:32:00;;;;;;;71.50;37.90;;;;;;;8.34;100.00;100367.97;5096265;28;20028;-85
2021/12/24 12:34:38;;;;;;;73.57;37.75;;;;;;;8.34;100.00;100371.44;5087500;28;20552;-86
2021/12/24 12:37:39;;;;;;;69.63;37.88;;;;;;;8.28;100.00;100356.13;5097490;28;20030;-85
2021/12/24 12:40:14;;;;;;;68.63;37.42;;;;;;;8.33;100.00;100367.16;5090077;28;20146;-85
2021/12/24 12:42:57;;;;;;;71.57;37.80;;;;;;;8.35;100.00;100367.88;5098886;28;20435;-85
2021/12/24 12:45:35;;;;;;;;;;;;;;;8.41;100.00;100371.84;5077807;28;20047;-87
2021/12/24 12:48:05;;;;;;;63.63;37.55;;;;;;;8.29;100.00;100372.69;5093518;28;20003;-84
2021/12/24 12:50:31;;;;;;;68.63;36.17;;;;;;;8.33;100.00;100363.66;5071802;28;20032;-84
2021/12/24 12:53:33;;;;;;;64.95;36.05;;;;;;;8.37;100.00;100370.38;5094420;28;20028;-84
2021/12/24 12:56:16;;;;;;;65.68;35.33;;;;;;;8.38;100.00;100361.56;5073624;28;20498;-85
2021/12/24 12:58:45;;;;;;;70.28;35.38;;;;;;;8.35;100.00;100360.00;5074689;28;20031;-84